Time;durP1;ratioP1;P1;durP2;ratioP2;P2;SDS_P1;SDS_P2;PMS_P1;PMS_P2;Temp;Humidity;BMP_temperature;BMP_pressure;BME280_temperature;BME280_humidity;BME280_pressure;Samples;Min_cycle;Max_cycle;Signal;HPM_P1;HPM_P2
2022/03/06 00:02:14;;;;;;;5.80;4.97;;;;;;;;;;5050427;28;20197;-62
2022/03/06 00:04:43;;;;;;;5.53;5.03;;;;;;;;;;5055670;28;20637;-62
2022/03/06 00:07:15;;;;;;;5.17;4.67;;;;;;;;;;5060871;28;20206;-61
2022/03/06 00:09:48;;;;;;;5.47;4.90;;;;;;;;;;5048717;28;20198;-60
2022/03/06 00:12:18;;;;;;;5.90;5.30;;;;;;;;;;5031421;28;20219;-62
2022/03/06 00:14:50;;;;;;;5.77;4.97;;;;;;;;;;5040361;28;20209;-61
2022/03/06 00:17:19;;;;;;;5.30;4.67;;;;;;;;;;5057713;28;20221;-61
2022/03/06 00:19:50;;;;;;;5.60;5.10;;;;;;;;;;5053407;28;20332;-61
2022/03/06 00:22:21;;;;;;;5.50;5.00;;;;;;;;;;5065907;28;20513;-62
2022/03/06 00:24:56;;;;;;;4.90;4.40;;;;;;;;;;5067093;28;20503;-62
2022/03/06 00:27:26;;;;;;;6.53;5.30;;;;;;;;;;5069758;28;20203;-62
2022/03/06 00:29:57;;;;;;;5.03;4.53;;;;;;;;;;5063686;28;20202;-62
2022/03/06 00:32:27;;;;;;;5.10;4.60;;;;;;;;;;5064678;28;20220;-62
2022/03/06 00:34:58;;;;;;;4.67;4.27;;;;;;;;;;5065837;28;20213;-62
2022/03/06 00:37:27;;;;;;;5.90;5.30;;;;;;;;;;5074651;28;20361;-61
2022/03/06 00:39:56;;;;;;;4.77;4.33;;;;;;;;;;5048978;28;20681;-61
2022/03/06 00:42:25;;;;;;;4.87;4.37;;;;;;;;;;5074161;28;20198;-62
2022/03/06 00:44:55;;;;;;;4.77;4.37;;;;;;;;;;5063853;28;20214;-61
2022/03/06 00:47:25;;;;;;;5.10;4.60;;;;;;;;;;5065298;28;20210;-62
2022/03/06 00:49:56;;;;;;;5.60;5.00;;;;;;;;;;5069283;28;20213;-62
2022/03/06 00:52:29;;;;;;;5.23;4.73;;;;;;;;;;5050800;28;20206;-62
2022/03/06 00:55:03;;;;;;;5.67;4.63;;;;;;;;;;5067676;28;20236;-62
2022/03/06 00:57:31;;;;;;;5.50;4.67;;;;;;;;;;5058449;28;20237;-61
2022/03/06 01:00:15;;;;;;;5.03;4.53;;;;;;;;;;5066803;28;20280;-63
2022/03/06 01:02:44;;;;;;;5.23;4.73;;;;;;;;;;5049916;28;20267;-61
2022/03/06 01:05:14;;;;;;;4.83;4.33;;;;;;;;;;5058793;28;20650;-61
2022/03/06 01:07:44;;;;;;;5.00;4.50;;;;;;;;;;5064647;28;20205;-61
2022/03/06 01:10:15;;;;;;;5.20;4.70;;;;;;;;;;5068962;28;20222;-61
2022/03/06 01:12:47;;;;;;;5.20;4.70;;;;;;;;;;5071874;28;20208;-61
2022/03/06 01:15:17;;;;;;;5.43;4.50;;;;;;;;;;5068254;28;20202;-62
2022/03/06 01:17:47;;;;;;;5.07;4.57;;;;;;;;;;5053250;28;20225;-61
2022/03/06 01:20:17;;;;;;;5.60;5.10;;;;;;;;;;5068427;28;20209;-61
2022/03/06 01:22:49;;;;;;;4.73;4.33;;;;;;;;;;5064861;28;20226;-62
2022/03/06 01:25:21;;;;;;;6.20;5.20;;;;;;;;;;5076706;28;20205;-62
2022/03/06 01:27:58;;;;;;;4.80;4.30;;;;;;;;;;5069065;28;20210;-62
2022/03/06 01:30:28;;;;;;;4.67;4.27;;;;;;;;;;5062308;28;20194;-63
2022/03/06 01:32:56;;;;;;;5.93;4.60;;;;;;;;;;5047108;28;20237;-62
2022/03/06 01:35:32;;;;;;;4.83;4.33;;;;;;;;;;5050592;28;20215;-61
2022/03/06 01:38:08;;;;;;;4.80;4.40;;;;;;;;;;5063848;28;20683;-62
2022/03/06 01:40:39;;;;;;;5.03;4.53;;;;;;;;;;5067912;28;20205;-62
2022/03/06 01:43:08;;;;;;;5.17;4.67;;;;;;;;;;5071931;28;20208;-63
2022/03/06 01:45:38;;;;;;;5.13;4.63;;;;;;;;;;5067501;28;20197;-63
2022/03/06 01:48:13;;;;;;;6.00;4.43;;;;;;;;;;5065014;28;20205;-63
2022/03/06 01:50:44;;;;;;;5.90;5.30;;;;;;;;;;5067987;28;20287;-63
2022/03/06 01:53:26;;;;;;;5.47;4.90;;;;;;;;;;5072644;28;20197;-61
2022/03/06 01:55:58;;;;;;;5.60;5.10;;;;;;;;;;5063202;28;20206;-61
2022/03/06 01:58:36;;;;;;;5.73;5.13;;;;;;;;;;5063649;28;20288;-62
2022/03/06 02:01:09;;;;;;;5.30;4.80;;;;;;;;;;5071256;28;20194;-61
2022/03/06 02:03:52;;;;;;;5.37;4.87;;;;;;;;;;5072106;28;20240;-62
2022/03/06 02:06:23;;;;;;;5.07;4.57;;;;;;;;;;5049035;28;20213;-62
2022/03/06 02:08:54;;;;;;;5.30;4.60;;;;;;;;;;5066697;28;20759;-62
2022/03/06 02:11:30;;;;;;;5.40;4.90;;;;;;;;;;5047998;28;20209;-62
2022/03/06 02:14:04;;;;;;;5.80;5.20;;;;;;;;;;5064793;28;20670;-63
2022/03/06 02:16:36;;;;;;;5.27;4.77;;;;;;;;;;5052346;28;20232;-62
2022/03/06 02:19:05;;;;;;;6.13;5.20;;;;;;;;;;5071330;28;20212;-62
2022/03/06 02:21:37;;;;;;;6.30;4.70;;;;;;;;;;5066554;28;20705;-61
2022/03/06 02:24:11;;;;;;;5.63;5.00;;;;;;;;;;5066892;28;20206;-62
2022/03/06 02:26:42;;;;;;;5.23;4.73;;;;;;;;;;5063696;28;20198;-62
2022/03/06 02:29:12;;;;;;;5.53;5.03;;;;;;;;;;5065827;28;20518;-62
2022/03/06 02:31:42;;;;;;;5.37;4.87;;;;;;;;;;5073504;28;20210;-61
2022/03/06 02:34:11;;;;;;;6.03;5.40;;;;;;;;;;5061468;28;20194;-62
2022/03/06 02:36:42;;;;;;;5.70;5.10;;;;;;;;;;5066162;28;20217;-61
2022/03/06 02:39:14;;;;;;;5.90;4.90;;;;;;;;;;5072537;28;20193;-62
2022/03/06 02:41:44;;;;;;;6.77;5.53;;;;;;;;;;5063614;28;20290;-62
2022/03/06 02:44:15;;;;;;;5.50;5.00;;;;;;;;;;5076254;28;20313;-63
2022/03/06 02:46:47;;;;;;;5.90;5.30;;;;;;;;;;5067599;28;20216;-62
2022/03/06 02:49:22;;;;;;;6.57;5.10;;;;;;;;;;5064735;28;20641;-62
2022/03/06 02:51:55;;;;;;;5.97;5.37;;;;;;;;;;5055742;28;20193;-62
2022/03/06 02:54:24;;;;;;;6.43;5.10;;;;;;;;;;5068332;28;20194;-61
2022/03/06 02:56:54;;;;;;;5.87;5.30;;;;;;;;;;5067645;28;20615;-61
2022/03/06 02:59:28;;;;;;;5.87;5.27;;;;;;;;;;5049439;28;20609;-62
2022/03/06 03:01:58;;;;;;;6.87;5.60;;;;;;;;;;5067756;28;20205;-61
2022/03/06 03:04:33;;;;;;;5.67;5.17;;;;;;;;;;5069064;28;20259;-62
2022/03/06 03:07:04;;;;;;;5.87;5.30;;;;;;;;;;5053139;28;20197;-61
2022/03/06 03:09:35;;;;;;;5.60;5.10;;;;;;;;;;5077608;28;20212;-62
2022/03/06 03:12:06;;;;;;;5.90;5.30;;;;;;;;;;5046103;28;20549;-62
2022/03/06 03:14:38;;;;;;;5.73;5.17;;;;;;;;;;5070407;28;20200;-62
2022/03/06 03:17:14;;;;;;;5.60;5.00;;;;;;;;;;5071057;28;20208;-62
2022/03/06 03:19:46;;;;;;;5.87;5.30;;;;;;;;;;5070012;28;20190;-61
2022/03/06 03:22:16;;;;;;;5.93;5.10;;;;;;;;;;5063302;28;20224;-62
2022/03/06 03:24:57;;;;;;;6.17;4.83;;;;;;;;;;5073301;28;20208;-63
2022/03/06 03:27:28;;;;;;;5.40;4.90;;;;;;;;;;5068427;28;20207;-61
2022/03/06 03:29:58;;;;;;;6.17;5.60;;;;;;;;;;5041577;28;20212;-61
2022/03/06 03:32:27;;;;;;;6.80;6.10;;;;;;;;;;5075184;28;20198;-61
2022/03/06 03:34:56;;;;;;;5.80;5.30;;;;;;;;;;5067997;28;20542;-62
2022/03/06 03:37:27;;;;;;;5.80;5.20;;;;;;;;;;5068383;28;20228;-62
2022/03/06 03:40:09;;;;;;;5.33;4.83;;;;;;;;;;5047366;28;20740;-61
2022/03/06 03:42:40;;;;;;;5.90;5.30;;;;;;;;;;5061274;28;20219;-62
2022/03/06 03:45:12;;;;;;;6.43;4.77;;;;;;;;;;5073187;28;20190;-62
2022/03/06 03:47:42;;;;;;;5.77;5.27;;;;;;;;;;5059965;28;20221;-61
2022/03/06 03:50:13;;;;;;;6.20;5.33;;;;;;;;;;5068799;28;20209;-61
2022/03/06 03:52:42;;;;;;;5.57;4.97;;;;;;;;;;5071502;28;20209;-62
2022/03/06 03:55:12;;;;;;;6.57;5.87;;;;;;;;;;5087991;28;20669;-62
2022/03/06 03:57:42;;;;;;;6.37;5.50;;;;;;;;;;5084886;28;20233;-62
2022/03/06 04:00:11;;;;;;;5.87;5.37;;;;;;;;;;5085419;28;20282;-62
2022/03/06 04:02:41;;;;;;;5.83;5.27;;;;;;;;;;5088574;28;20196;-62
2022/03/06 04:05:11;;;;;;;5.37;4.87;;;;;;;;;;5077024;28;20320;-63
2022/03/06 04:07:39;;;;;;;6.13;4.97;;;;;;;;;;5071943;28;20270;-62
2022/03/06 04:10:09;;;;;;;5.50;5.00;;;;;;;;;;5084040;28;20237;-60
2022/03/06 04:12:39;;;;;;;5.53;5.03;;;;;;;;;;5073522;28;20211;-62
2022/03/06 04:15:07;;;;;;;5.43;4.93;;;;;;;;;;5087656;28;20200;-61
2022/03/06 04:17:34;;;;;;;6.50;5.90;;;;;;;;;;5085975;28;20216;-62
2022/03/06 04:20:05;;;;;;;5.57;5.03;;;;;;;;;;5085013;28;20197;-61
2022/03/06 04:22:47;;;;;;;5.30;4.80;;;;;;;;;;5082487;28;20315;-61
2022/03/06 04:25:17;;;;;;;6.23;4.70;;;;;;;;;;5073865;28;20659;-62
2022/03/06 04:27:47;;;;;;;5.10;4.70;;;;;;;;;;5065914;28;20213;-62
2022/03/06 04:30:19;;;;;;;5.73;5.10;;;;;;;;;;5088979;28;20201;-61
2022/03/06 04:32:54;;;;;;;5.47;4.97;;;;;;;;;;5072097;28;20197;-62
2022/03/06 04:35:24;;;;;;;5.90;5.30;;;;;;;;;;5085280;28;20232;-62
2022/03/06 04:37:55;;;;;;;6.47;5.87;;;;;;;;;;5101319;28;20231;-63
2022/03/06 04:40:28;;;;;;;7.30;5.40;;;;;;;;;;5070510;28;20213;-63
2022/03/06 04:42:56;;;;;;;5.67;5.13;;;;;;;;;;5087939;28;20217;-63
2022/03/06 04:45:26;;;;;;;5.40;4.90;;;;;;;;;;5087337;28;20544;-61
2022/03/06 04:47:56;;;;;;;6.17;5.57;;;;;;;;;;5091600;28;20232;-61
2022/03/06 04:50:25;;;;;;;6.13;5.47;;;;;;;;;;5087233;28;20212;-62
2022/03/06 04:53:07;;;;;;;5.50;5.00;;;;;;;;;;5077769;28;20255;-61
2022/03/06 04:55:34;;;;;;;5.30;4.80;;;;;;;;;;5095499;28;20209;-61
2022/03/06 04:58:07;;;;;;;5.87;5.33;;;;;;;;;;5083248;28;20419;-61
2022/03/06 05:00:38;;;;;;;6.10;5.53;;;;;;;;;;5082918;28;20247;-61
2022/03/06 05:03:10;;;;;;;5.30;4.80;;;;;;;;;;5070825;28;20323;-62
2022/03/06 05:05:40;;;;;;;5.40;4.90;;;;;;;;;;5086562;28;20270;-61
2022/03/06 05:08:12;;;;;;;6.00;5.40;;;;;;;;;;5088743;28;20200;-63
2022/03/06 05:10:44;;;;;;;5.80;5.30;;;;;;;;;;5084793;28;20216;-61
2022/03/06 05:13:14;;;;;;;6.73;6.03;;;;;;;;;;5069388;28;20193;-61
2022/03/06 05:15:45;;;;;;;5.77;5.23;;;;;;;;;;5078706;28;20204;-63
2022/03/06 05:18:13;;;;;;;5.70;5.17;;;;;;;;;;5086374;28;20245;-61
2022/03/06 05:20:46;;;;;;;5.43;4.93;;;;;;;;;;5087812;28;20197;-61
2022/03/06 05:23:18;;;;;;;6.33;5.80;;;;;;;;;;5089733;28;20254;-62
2022/03/06 05:25:50;;;;;;;5.07;4.67;;;;;;;;;;5081925;28;20216;-62
2022/03/06 05:28:21;;;;;;;6.60;5.53;;;;;;;;;;5086286;28;20685;-61
2022/03/06 05:30:56;;;;;;;5.97;5.33;;;;;;;;;;5086024;28;20212;-62
2022/03/06 05:33:26;;;;;;;6.80;5.47;;;;;;;;;;5088705;28;20204;-61
2022/03/06 05:35:59;;;;;;;5.97;5.40;;;;;;;;;;5069876;28;20221;-61
2022/03/06 05:38:29;;;;;;;5.77;5.27;;;;;;;;;;5087327;28;20234;-63
2022/03/06 05:41:00;;;;;;;6.10;5.50;;;;;;;;;;5086948;28;20204;-64
2022/03/06 05:43:28;;;;;;;5.57;5.07;;;;;;;;;;5090451;28;20294;-61
2022/03/06 05:46:10;;;;;;;7.80;5.53;;;;;;;;;;5081457;28;20216;-62
2022/03/06 05:48:39;;;;;;;5.77;5.23;;;;;;;;;;5085401;28;20637;-61
2022/03/06 05:51:11;;;;;;;6.20;5.03;;;;;;;;;;5088554;28;20207;-63
2022/03/06 05:53:41;;;;;;;5.30;4.80;;;;;;;;;;5074559;28;20200;-61
2022/03/06 05:56:09;;;;;;;5.67;5.17;;;;;;;;;;5059889;28;20567;-61
2022/03/06 05:58:38;;;;;;;5.97;5.40;;;;;;;;;;5081904;28;20240;-61
2022/03/06 06:01:07;;;;;;;5.87;5.27;;;;;;;;;;5075617;28;20600;-63
2022/03/06 06:03:38;;;;;;;7.83;5.23;;;;;;;;;;5070575;28;20192;-63
2022/03/06 06:06:08;;;;;;;6.40;5.80;;;;;;;;;;5091859;28;20200;-61
2022/03/06 06:08:37;;;;;;;5.77;5.20;;;;;;;;;;5070530;28;20225;-61
2022/03/06 06:11:08;;;;;;;5.83;5.30;;;;;;;;;;5069810;28;20204;-63
2022/03/06 06:13:39;;;;;;;5.73;5.23;;;;;;;;;;5090955;28;20208;-65
2022/03/06 06:16:10;;;;;;;6.00;5.40;;;;;;;;;;5082485;28;20197;-63
2022/03/06 06:18:40;;;;;;;6.03;5.43;;;;;;;;;;5087265;28;20248;-62
2022/03/06 06:21:11;;;;;;;8.43;5.37;;;;;;;;;;5086516;28;20221;-61
2022/03/06 06:23:42;;;;;;;6.10;5.50;;;;;;;;;;5083452;28;20231;-62
2022/03/06 06:26:15;;;;;;;6.33;5.73;;;;;;;;;;5085595;28;20282;-61
2022/03/06 06:28:52;;;;;;;5.87;5.37;;;;;;;;;;5083498;28;20209;-61
2022/03/06 06:31:32;;;;;;;5.67;5.17;;;;;;;;;;5082137;28;20579;-64
2022/03/06 06:34:03;;;;;;;5.70;5.20;;;;;;;;;;5063300;28;20519;-63
2022/03/06 06:36:36;;;;;;;6.37;5.77;;;;;;;;;;5084991;28;20217;-62
2022/03/06 06:39:11;;;;;;;5.30;4.80;;;;;;;;;;5078422;28;20209;-63
2022/03/06 06:41:44;;;;;;;5.87;5.33;;;;;;;;;;5081784;28;20219;-64
2022/03/06 06:44:13;;;;;;;5.23;4.73;;;;;;;;;;5079250;28;20348;-63
2022/03/06 06:46:45;;;;;;;5.43;4.93;;;;;;;;;;5061287;28;20209;-64
2022/03/06 06:49:22;;;;;;;5.37;4.87;;;;;;;;;;5086194;28;20626;-63
2022/03/06 06:51:50;;;;;;;5.80;5.30;;;;;;;;;;5075104;28;20214;-64
2022/03/06 06:54:34;;;;;;;5.97;5.40;;;;;;;;;;5085484;28;20237;-64
2022/03/06 06:57:08;;;;;;;5.77;5.23;;;;;;;;;;5085183;28;20215;-64
2022/03/06 06:59:40;;;;;;;5.77;5.17;;;;;;;;;;5085281;28;20229;-64
2022/03/06 07:02:13;;;;;;;7.13;6.43;;;;;;;;;;5081169;28;20611;-64
2022/03/06 07:04:44;;;;;;;6.33;5.73;;;;;;;;;;5096403;28;20212;-63
2022/03/06 07:07:14;;;;;;;5.67;5.10;;;;;;;;;;5088043;28;20211;-62
2022/03/06 07:09:42;;;;;;;5.87;5.37;;;;;;;;;;5068659;28;20209;-62
2022/03/06 07:12:15;;;;;;;6.10;5.50;;;;;;;;;;5084990;28;20200;-62
2022/03/06 07:14:44;;;;;;;6.40;5.73;;;;;;;;;;5086915;28;20222;-62
2022/03/06 07:17:18;;;;;;;10.40;5.40;;;;;;;;;;5085841;28;20243;-65
2022/03/06 07:19:45;;;;;;;6.53;5.33;;;;;;;;;;5090174;28;20778;-65
2022/03/06 07:22:15;;;;;;;5.93;5.43;;;;;;;;;;5083997;28;20307;-64
2022/03/06 07:24:42;;;;;;;5.77;5.27;;;;;;;;;;5051559;28;20254;-64
2022/03/06 07:27:12;;;;;;;5.47;4.97;;;;;;;;;;5069948;28;20204;-63
2022/03/06 07:29:44;;;;;;;5.93;5.33;;;;;;;;;;5086595;28;20194;-64
2022/03/06 07:32:16;;;;;;;6.23;5.43;;;;;;;;;;5080692;28;20242;-64
2022/03/06 07:34:48;;;;;;;6.00;5.50;;;;;;;;;;5082270;28;20650;-64
2022/03/06 07:37:18;;;;;;;6.30;5.37;;;;;;;;;;5084726;28;20204;-64
2022/03/06 07:39:51;;;;;;;6.53;5.43;;;;;;;;;;5078612;28;20194;-64
2022/03/06 07:42:21;;;;;;;5.43;4.93;;;;;;;;;;5085026;28;20201;-63
2022/03/06 07:44:49;;;;;;;5.20;4.73;;;;;;;;;;5086694;28;20227;-64
2022/03/06 07:47:22;;;;;;;6.43;4.97;;;;;;;;;;5083772;28;20216;-62
2022/03/06 07:49:49;;;;;;;5.33;4.83;;;;;;;;;;5079770;28;20205;-62
2022/03/06 07:52:19;;;;;;;4.90;4.50;;;;;;;;;;5079743;28;20201;-62
2022/03/06 07:54:49;;;;;;;5.23;4.73;;;;;;;;;;5090639;28;20204;-62
2022/03/06 07:57:19;;;;;;;5.37;4.87;;;;;;;;;;5070924;28;20629;-62
2022/03/06 07:59:50;;;;;;;5.30;4.50;;;;;;;;;;5081088;28;20239;-62
2022/03/06 08:02:20;;;;;;;6.77;4.73;;;;;;;;;;5085825;28;20210;-62
2022/03/06 08:04:56;;;;;;;5.97;5.37;;;;;;;;;;5082504;28;20205;-62
2022/03/06 08:07:28;;;;;;;6.03;5.43;;;;;;;;;;5090300;28;20262;-64
2022/03/06 08:09:58;;;;;;;5.23;4.67;;;;;;;;;;5079576;28;20254;-62
2022/03/06 08:12:29;;;;;;;5.47;4.97;;;;;;;;;;5088240;28;20215;-65
2022/03/06 08:15:00;;;;;;;5.07;4.50;;;;;;;;;;5087139;28;20217;-64
2022/03/06 08:17:31;;;;;;;5.13;4.73;;;;;;;;;;5091889;28;20246;-61
2022/03/06 08:20:07;;;;;;;5.80;5.30;;;;;;;;;;5086238;28;20207;-62
2022/03/06 08:22:42;;;;;;;5.77;4.60;;;;;;;;;;5078516;28;20787;-61
2022/03/06 08:25:15;;;;;;;5.60;5.10;;;;;;;;;;5087302;28;20197;-62
2022/03/06 08:27:46;;;;;;;5.10;4.70;;;;;;;;;;5082191;28;20219;-62
2022/03/06 08:30:17;;;;;;;4.97;4.57;;;;;;;;;;5083504;28;20207;-62
2022/03/06 08:32:48;;;;;;;4.93;4.43;;;;;;;;;;5069154;28;20205;-62
2022/03/06 08:35:16;;;;;;;5.03;4.60;;;;;;;;;;5085471;28;20225;-62
2022/03/06 08:37:52;;;;;;;5.00;4.50;;;;;;;;;;5079714;28;20215;-61
2022/03/06 08:40:23;;;;;;;5.03;4.63;;;;;;;;;;5084712;28;20201;-63
2022/03/06 08:42:54;;;;;;;5.70;5.20;;;;;;;;;;5081038;28;20205;-63
2022/03/06 08:45:26;;;;;;;5.50;4.83;;;;;;;;;;5087043;28;20212;-63
2022/03/06 08:48:00;;;;;;;5.40;4.73;;;;;;;;;;5076050;28;20213;-62
2022/03/06 08:50:32;;;;;;;5.97;5.47;;;;;;;;;;5084069;28;20225;-64
2022/03/06 08:53:00;;;;;;;5.37;4.87;;;;;;;;;;5084287;28;20263;-63
2022/03/06 08:55:30;;;;;;;5.77;5.13;;;;;;;;;;5066896;28;20263;-63
2022/03/06 08:58:01;;;;;;;6.63;6.03;;;;;;;;;;5072445;28;20201;-63
2022/03/06 09:00:33;;;;;;;5.97;5.40;;;;;;;;;;5079742;28;20201;-62
2022/03/06 09:03:05;;;;;;;6.33;5.73;;;;;;;;;;5078055;28;20253;-63
2022/03/06 09:05:40;;;;;;;5.50;5.00;;;;;;;;;;5082738;28;20650;-63
2022/03/06 09:08:10;;;;;;;6.43;5.80;;;;;;;;;;5078929;28;20580;-63
2022/03/06 09:10:41;;;;;;;6.17;5.57;;;;;;;;;;5074116;28;20224;-63
2022/03/06 09:13:11;;;;;;;7.47;6.20;;;;;;;;;;5077159;28;20219;-64
2022/03/06 09:15:42;;;;;;;6.33;5.70;;;;;;;;;;5078845;28;20212;-63
2022/03/06 09:18:12;;;;;;;6.43;5.83;;;;;;;;;;5099445;27;20693;-64
2022/03/06 09:20:44;;;;;;;7.23;6.57;;;;;;;;;;5068454;28;20189;-64
2022/03/06 09:23:15;;;;;;;6.37;5.77;;;;;;;;;;5083858;28;20225;-64
2022/03/06 09:25:43;;;;;;;6.80;6.20;;;;;;;;;;5069452;28;20201;-63
2022/03/06 09:28:16;;;;;;;6.13;5.53;;;;;;;;;;5085122;28;20201;-64
2022/03/06 09:30:52;;;;;;;7.47;6.77;;;;;;;;;;5079135;28;20205;-62
2022/03/06 09:33:22;;;;;;;7.00;6.30;;;;;;;;;;5088104;28;20213;-63
2022/03/06 09:36:01;;;;;;;6.80;6.20;;;;;;;;;;5079395;28;20213;-62
2022/03/06 09:38:31;;;;;;;6.90;6.30;;;;;;;;;;5087497;28;20213;-62
2022/03/06 09:41:07;;;;;;;6.77;6.07;;;;;;;;;;5078167;28;20280;-63
2022/03/06 09:43:37;;;;;;;7.23;6.63;;;;;;;;;;5085481;28;20283;-64
2022/03/06 09:46:06;;;;;;;7.40;6.50;;;;;;;;;;5073759;28;20222;-64
2022/03/06 09:48:37;;;;;;;6.90;6.20;;;;;;;;;;5068813;28;20720;-66
2022/03/06 09:51:07;;;;;;;7.40;6.70;;;;;;;;;;5100195;27;20204;-64
2022/03/06 09:53:38;;;;;;;7.07;6.37;;;;;;;;;;5086001;28;20205;-63
2022/03/06 09:56:09;;;;;;;6.90;6.20;;;;;;;;;;5072821;28;20553;-63
2022/03/06 09:58:41;;;;;;;7.30;6.20;;;;;;;;;;5080598;28;20233;-63
2022/03/06 10:01:12;;;;;;;7.97;7.23;;;;;;;;;;5084057;28;20201;-65
2022/03/06 10:03:42;;;;;;;6.70;6.00;;;;;;;;;;5085315;28;20799;-64
2022/03/06 10:06:12;;;;;;;6.23;5.63;;;;;;;;;;5085856;28;20327;-64
2022/03/06 10:08:41;;;;;;;6.77;6.07;;;;;;;;;;5083604;28;20224;-64
2022/03/06 10:11:16;;;;;;;6.90;6.30;;;;;;;;;;5065113;28;20260;-64
2022/03/06 10:13:44;;;;;;;7.63;6.83;;;;;;;;;;5045641;28;20205;-64
2022/03/06 10:16:18;;;;;;;6.67;6.07;;;;;;;;;;5077601;28;20753;-64
2022/03/06 10:18:51;;;;;;;7.33;6.63;;;;;;;;;;5082864;28;20224;-62
2022/03/06 10:21:26;;;;;;;6.73;6.00;;;;;;;;;;5053342;28;20206;-62
2022/03/06 10:23:56;;;;;;;6.47;5.83;;;;;;;;;;5073092;28;20213;-64
2022/03/06 10:26:29;;;;;;;6.77;6.10;;;;;;;;;;5075739;28;20453;-65
2022/03/06 10:29:11;;;;;;;6.20;5.57;;;;;;;;;;5085349;28;20224;-63
2022/03/06 10:31:59;;;;;;;6.43;5.90;;;;;;;;;;5080839;28;20200;-62
2022/03/06 10:34:39;;;;;;;7.83;7.07;;;;;;;;;;5082865;28;20266;-63
2022/03/06 10:37:13;;;;;;;6.70;6.10;;;;;;;;;;5082729;28;20211;-62
2022/03/06 10:39:45;;;;;;;7.10;6.40;;;;;;;;;;5065254;28;20282;-61
2022/03/06 10:42:24;;;;;;;7.47;6.73;;;;;;;;;;5065412;28;20228;-63
2022/03/06 10:44:56;;;;;;;6.63;5.97;;;;;;;;;;5057556;28;20197;-65
2022/03/06 10:47:27;;;;;;;6.67;6.07;;;;;;;;;;5078603;28;20287;-62
2022/03/06 10:50:06;;;;;;;6.30;5.70;;;;;;;;;;5058314;28;20189;-62
2022/03/06 10:52:44;;;;;;;5.73;5.20;;;;;;;;;;5069025;28;20594;-64
2022/03/06 10:55:31;;;;;;;6.23;5.63;;;;;;;;;;5058301;28;20216;-62
2022/03/06 10:58:03;;;;;;;7.17;5.70;;;;;;;;;;5080087;28;20205;-64
2022/03/06 11:00:38;;;;;;;6.27;5.67;;;;;;;;;;5078789;28;20221;-64
2022/03/06 11:03:10;;;;;;;7.27;6.07;;;;;;;;;;5082341;28;20661;-64
2022/03/06 11:05:46;;;;;;;5.83;5.23;;;;;;;;;;5079850;28;20192;-63
2022/03/06 11:08:15;;;;;;;6.53;5.93;;;;;;;;;;5088039;28;20226;-64
2022/03/06 11:10:47;;;;;;;6.47;5.90;;;;;;;;;;5080835;28;20286;-65
2022/03/06 11:13:17;;;;;;;6.83;5.17;;;;;;;;;;5084376;28;20197;-64
2022/03/06 11:15:44;;;;;;;6.20;5.63;;;;;;;;;;5083443;28;20197;-64
2022/03/06 11:18:16;;;;;;;6.13;5.53;;;;;;;;;;5084932;28;20519;-64
2022/03/06 11:20:48;;;;;;;7.10;6.37;;;;;;;;;;5054664;28;20600;-64
2022/03/06 11:23:25;;;;;;;5.77;5.27;;;;;;;;;;5084161;28;20610;-64
2022/03/06 11:26:03;;;;;;;5.93;5.10;;;;;;;;;;5072559;28;20196;-63
2022/03/06 11:28:51;;;;;;;5.90;5.40;;;;;;;;;;5065790;28;20194;-65
2022/03/06 11:31:23;;;;;;;6.67;5.67;;;;;;;;;;5084455;28;20820;-63
2022/03/06 11:34:03;;;;;;;5.73;5.13;;;;;;;;;;5062220;28;20656;-64
2022/03/06 11:36:45;;;;;;;5.20;4.70;;;;;;;;;;5066035;28;20228;-63
2022/03/06 11:39:33;;;;;;;5.73;5.20;;;;;;;;;;5081977;28;20228;-63
2022/03/06 11:42:14;;;;;;;5.20;4.70;;;;;;;;;;5067510;28;20724;-64
2022/03/06 11:44:57;;;;;;;7.17;5.60;;;;;;;;;;5087649;28;20201;-64
2022/03/06 11:47:40;;;;;;;5.00;4.53;;;;;;;;;;5079436;28;20269;-65
2022/03/06 11:50:21;;;;;;;4.63;4.23;;;;;;;;;;5061692;28;20220;-64
2022/03/06 11:52:50;;;;;;;4.70;4.30;;;;;;;;;;5088198;28;20724;-66
2022/03/06 11:55:33;;;;;;;5.03;4.53;;;;;;;;;;5087998;28;20205;-64
2022/03/06 11:58:03;;;;;;;5.13;4.63;;;;;;;;;;5063474;28;20261;-64
2022/03/06 12:00:38;;;;;;;4.57;4.03;;;;;;;;;;5085871;28;20224;-65
2022/03/06 12:03:10;;;;;;;5.00;4.50;;;;;;;;;;5070860;28;20614;-64
2022/03/06 12:05:49;;;;;;;7.33;4.70;;;;;;;;;;5089639;28;20205;-64
2022/03/06 12:08:23;;;;;;;8.80;5.07;;;;;;;;;;5088971;28;20204;-66
2022/03/06 12:10:57;;;;;;;11.33;4.90;;;;;;;;;;5068513;28;20293;-64
2022/03/06 12:13:27;;;;;;;9.73;4.80;;;;;;;;;;5078155;28;20193;-64
2022/03/06 12:16:03;;;;;;;8.03;4.03;;;;;;;;;;5086099;28;20211;-62
2022/03/06 12:18:34;;;;;;;7.00;3.60;;;;;;;;;;5069895;28;20192;-62
2022/03/06 12:21:19;;;;;;;7.93;4.57;;;;;;;;;;5069549;28;20227;-63
2022/03/06 12:24:11;;;;;;;7.67;4.33;;;;;;;;;;5083458;28;20221;-63
2022/03/06 12:26:49;;;;;;;8.03;4.07;;;;;;;;;;5068786;28;20229;-63
2022/03/06 12:29:36;;;;;;;6.63;3.50;;;;;;;;;;5087272;28;20213;-65
2022/03/06 12:32:24;;;;;;;12.90;3.83;;;;;;;;;;5084998;28;20197;-63
2022/03/06 12:35:05;;;;;;;5.03;3.80;;;;;;;;;;5078469;28;20205;-64
2022/03/06 12:37:35;;;;;;;3.47;3.17;;;;;;;;;;5081078;28;20627;-63
2022/03/06 12:40:10;;;;;;;4.43;3.20;;;;;;;;;;5085363;28;20211;-64
2022/03/06 12:42:59;;;;;;;3.87;3.30;;;;;;;;;;5086098;28;20221;-62
2022/03/06 12:45:32;;;;;;;4.53;3.10;;;;;;;;;;5054761;28;20232;-62
2022/03/06 12:48:06;;;;;;;3.70;3.10;;;;;;;;;;5079853;28;20213;-62
2022/03/06 12:50:43;;;;;;;3.97;3.43;;;;;;;;;;5087753;28;20221;-64
2022/03/06 12:53:17;;;;;;;3.70;3.30;;;;;;;;;;5086486;28;20220;-64
2022/03/06 12:55:47;;;;;;;4.80;4.00;;;;;;;;;;5070324;28;20255;-62
2022/03/06 12:58:17;;;;;;;3.63;3.17;;;;;;;;;;5065507;28;20205;-63
2022/03/06 13:00:48;;;;;;;4.10;3.70;;;;;;;;;;5086394;28;20232;-64
2022/03/06 13:03:19;;;;;;;5.13;3.33;;;;;;;;;;5085504;28;20213;-64
2022/03/06 13:05:49;;;;;;;5.23;3.37;;;;;;;;;;5085753;28;20216;-61
2022/03/06 13:08:18;;;;;;;4.17;2.87;;;;;;;;;;5082497;28;20217;-61
2022/03/06 13:10:49;;;;;;;6.43;3.30;;;;;;;;;;5076598;28;20209;-61
2022/03/06 13:13:21;;;;;;;4.90;3.37;;;;;;;;;;5085649;28;20213;-62
2022/03/06 13:15:52;;;;;;;4.53;3.20;;;;;;;;;;5076122;28;20206;-62
2022/03/06 13:18:33;;;;;;;5.90;3.60;;;;;;;;;;5086136;28;20215;-62
2022/03/06 13:21:20;;;;;;;4.17;3.60;;;;;;;;;;5082097;28;20278;-64
2022/03/06 13:23:59;;;;;;;5.23;3.50;;;;;;;;;;5062045;28;20198;-62
2022/03/06 13:26:31;;;;;;;7.43;3.60;;;;;;;;;;5081608;28;20208;-63
2022/03/06 13:29:03;;;;;;;5.40;3.60;;;;;;;;;;5077433;28;20243;-63
2022/03/06 13:31:46;;;;;;;3.73;3.37;;;;;;;;;;5086076;28;20208;-61
2022/03/06 13:34:16;;;;;;;5.43;3.90;;;;;;;;;;5084168;28;20564;-61
2022/03/06 13:36:50;;;;;;;5.43;4.67;;;;;;;;;;5069132;28;20209;-63
2022/03/06 13:39:34;;;;;;;6.03;4.60;;;;;;;;;;5084611;28;20270;-63
2022/03/06 13:42:03;;;;;;;5.70;4.83;;;;;;;;;;5082825;28;20940;-64
2022/03/06 13:44:35;;;;;;;4.80;4.30;;;;;;;;;;5076363;28;20196;-63
2022/03/06 13:47:14;;;;;;;5.70;4.60;;;;;;;;;;5075603;28;20317;-63
2022/03/06 13:49:46;;;;;;;7.87;4.77;;;;;;;;;;5073425;28;20193;-65
2022/03/06 13:52:16;;;;;;;6.07;4.40;;;;;;;;;;5081578;28;20209;-65
2022/03/06 13:54:46;;;;;;;4.90;3.80;;;;;;;;;;5063589;28;20201;-63
2022/03/06 13:57:14;;;;;;;4.40;4.00;;;;;;;;;;5084733;28;20201;-63
2022/03/06 13:59:47;;;;;;;6.33;4.07;;;;;;;;;;5069580;28;20229;-64
2022/03/06 14:02:27;;;;;;;5.77;3.90;;;;;;;;;;5083505;28;20946;-62
2022/03/06 14:05:05;;;;;;;4.10;3.60;;;;;;;;;;5063831;28;20625;-62
2022/03/06 14:07:39;;;;;;;4.40;3.90;;;;;;;;;;5065266;28;20197;-61
2022/03/06 14:10:09;;;;;;;5.53;4.10;;;;;;;;;;5075588;28;20900;-64
2022/03/06 14:12:46;;;;;;;3.93;3.63;;;;;;;;;;5068713;28;20534;-64
2022/03/06 14:15:23;;;;;;;4.13;3.73;;;;;;;;;;5063270;28;20709;-64
2022/03/06 14:17:57;;;;;;;5.73;3.93;;;;;;;;;;5084905;28;20239;-65
2022/03/06 14:20:27;;;;;;;3.70;3.40;;;;;;;;;;5086287;28;20216;-63
2022/03/06 14:22:59;;;;;;;4.67;3.13;;;;;;;;;;5076943;28;20298;-63
2022/03/06 14:25:29;;;;;;;3.80;3.33;;;;;;;;;;5080377;28;20582;-63
2022/03/06 14:28:02;;;;;;;4.03;3.60;;;;;;;;;;5064637;28;20530;-65
2022/03/06 14:30:33;;;;;;;8.80;3.80;;;;;;;;;;5086017;28;20261;-63
2022/03/06 14:33:10;;;;;;;7.33;3.90;;;;;;;;;;5086569;28;20224;-64
2022/03/06 14:35:43;;;;;;;7.83;3.80;;;;;;;;;;5085726;28;20217;-64
2022/03/06 14:38:14;;;;;;;8.97;4.03;;;;;;;;;;5070466;28;20205;-63
2022/03/06 14:40:44;;;;;;;5.67;3.60;;;;;;;;;;5069643;28;20216;-62
2022/03/06 14:43:11;;;;;;;6.23;4.00;;;;;;;;;;5073924;28;20193;-61
2022/03/06 14:45:43;;;;;;;5.33;3.33;;;;;;;;;;5084606;28;20204;-64
2022/03/06 14:48:12;;;;;;;11.27;4.30;;;;;;;;;;5082654;28;20201;-65
2022/03/06 14:50:57;;;;;;;6.63;4.27;;;;;;;;;;5090877;28;20204;-64
2022/03/06 14:53:26;;;;;;;9.00;3.93;;;;;;;;;;5087742;28;20204;-64
2022/03/06 14:55:56;;;;;;;6.73;3.37;;;;;;;;;;5085121;28;20678;-62
2022/03/06 14:58:32;;;;;;;7.13;3.20;;;;;;;;;;5083006;28;20225;-62
2022/03/06 15:01:04;;;;;;;6.00;3.30;;;;;;;;;;5055393;28;20239;-64
2022/03/06 15:03:36;;;;;;;6.63;3.10;;;;;;;;;;5073110;28;20196;-63
2022/03/06 15:06:09;;;;;;;3.33;2.80;;;;;;;;;;5073342;28;20235;-64
2022/03/06 15:08:51;;;;;;;7.57;3.30;;;;;;;;;;5090106;28;20192;-65
2022/03/06 15:11:21;;;;;;;4.33;2.63;;;;;;;;;;5087102;28;20221;-63
2022/03/06 15:13:51;;;;;;;4.37;2.80;;;;;;;;;;5067908;28;20212;-61
2022/03/06 15:16:24;;;;;;;4.53;2.83;;;;;;;;;;5092025;28;20208;-63